Time;durP1;ratioP1;P1;durP2;ratioP2;P2;SDS_P1;SDS_P2;PMS_P1;PMS_P2;Temp;Humidity;BMP_temperature;BMP_pressure;BME280_temperature;BME280_humidity;BME280_pressure;Samples;Min_cycle;Max_cycle;Signal;HPM_P1;HPM_P2
2021/04/13 00:01:20;;;;;;;1.50;1.40;;;3.00;99.90;;;;;;4746415;30;20418;-79
2021/04/13 00:03:53;;;;;;;1.60;1.50;;;3.00;99.90;;;;;;4751616;30;20762;-79
2021/04/13 00:06:39;;;;;;;1.40;1.30;;;2.90;99.90;;;;;;4761026;30;20421;-78
2021/04/13 00:09:19;;;;;;;1.73;1.37;;;2.80;99.90;;;;;;4732262;30;20406;-79
2021/04/13 00:11:56;;;;;;;1.65;1.35;;;2.80;99.90;;;;;;4715974;30;20511;-78
2021/04/13 00:14:28;;;;;;;1.63;1.52;;;2.70;99.90;;;;;;4724604;30;20443;-79
2021/04/13 00:16:59;;;;;;;1.70;1.40;;;2.70;99.90;;;;;;4716634;30;20442;-79
2021/04/13 00:19:41;;;;;;;1.60;1.50;;;2.70;99.90;;;;;;4716807;30;20963;-79
2021/04/13 00:22:06;;;;;;;1.20;1.20;;;2.60;99.90;;;;;;4718254;30;20418;-79
2021/04/13 00:24:32;;;;;;;1.50;1.40;;;2.70;99.90;;;;;;4716597;30;20456;-79
2021/04/13 00:26:59;;;;;;;1.50;1.40;;;2.60;99.90;;;;;;4711395;30;20444;-79
2021/04/13 00:29:30;;;;;;;1.35;1.25;;;2.50;99.90;;;;;;4719133;30;20962;-79
2021/04/13 00:31:57;;;;;;;1.63;1.53;;;2.50;99.90;;;;;;4687164;30;20418;-79
2021/04/13 00:34:40;;;;;;;2.25;1.50;;;2.50;99.90;;;;;;4687928;30;20422;-79
2021/04/13 00:37:23;;;;;;;1.60;1.50;;;2.50;99.90;;;;;;4712920;30;20962;-79
2021/04/13 00:39:53;;;;;;;1.60;1.50;;;2.50;99.90;;;;;;4710648;30;20426;-79
2021/04/13 00:42:29;;;;;;;2.33;1.30;;;2.40;99.90;;;;;;4702767;30;20936;-79
2021/04/13 00:45:14;;;;;;;1.33;1.23;;;2.40;99.90;;;;;;4705214;30;20474;-79
2021/04/13 00:47:39;;;;;;;1.50;1.40;;;2.40;99.90;;;;;;4719441;30;20419;-79
2021/04/13 00:50:11;;;;;;;1.80;1.60;;;2.30;99.90;;;;;;4733590;30;20408;-79
2021/04/13 00:52:49;;;;;;;3.93;1.63;;;2.30;99.90;;;;;;4727108;30;20426;-79
2021/04/13 00:55:16;;;;;;;1.73;1.57;;;2.30;99.90;;;;;;4713830;30;20429;-78
2021/04/13 00:57:43;;;;;;;1.77;1.40;;;2.30;99.90;;;;;;4711867;30;20483;-78
2021/04/13 01:00:15;;;;;;;1.48;1.38;;;2.20;99.90;;;;;;4714898;30;20512;-78
2021/04/13 01:02:41;;;;;;;1.60;1.50;;;2.10;99.90;;;;;;4729117;30;20422;-78
2021/04/13 01:05:17;;;;;;;2.50;1.50;;;2.20;99.90;;;;;;4699424;30;20594;-77
2021/04/13 01:07:52;;;;;;;1.70;1.60;;;2.10;99.90;;;;;;4713698;30;20454;-78
2021/04/13 01:10:17;;;;;;;1.50;1.40;;;2.10;99.90;;;;;;4728784;30;20420;-78
2021/04/13 01:12:50;;;;;;;1.27;1.27;;;2.20;99.90;;;;;;4711094;30;20430;-79
2021/04/13 01:15:16;;;;;;;1.73;1.63;;;2.00;99.90;;;;;;4710685;30;20435;-78
2021/04/13 01:17:42;;;;;;;1.77;1.67;;;2.00;99.90;;;;;;4727835;30;20529;-79
2021/04/13 01:20:30;;;;;;;1.33;1.30;;;2.10;99.90;;;;;;4714012;30;20429;-78
2021/04/13 01:23:02;;;;;;;1.92;1.70;;;2.00;99.90;;;;;;4711053;30;20423;-78
2021/04/13 01:25:30;;;;;;;1.50;1.40;;;2.00;99.90;;;;;;4686850;30;20609;-79
2021/04/13 01:28:01;;;;;;;1.67;1.58;;;1.90;99.90;;;;;;4740492;30;21126;-79
2021/04/13 01:30:49;;;;;;;1.80;1.45;;;1.90;99.90;;;;;;4729305;30;20441;-79
2021/04/13 01:33:32;;;;;;;1.67;1.57;;;1.80;99.90;;;;;;4724516;30;20545;-79
2021/04/13 01:35:59;;;;;;;1.60;1.50;;;1.80;99.90;;;;;;4725836;30;20515;-78
2021/04/13 01:38:42;;;;;;;1.60;1.50;;;1.80;99.90;;;;;;4726870;30;20978;-79
2021/04/13 01:43:45;;;;;;;1.50;1.40;;;1.70;99.90;;;;;;4701746;30;20817;-78
2021/04/13 01:46:10;;;;;;;2.15;1.42;;;1.70;99.90;;;;;;4686079;30;20427;-78
2021/04/13 01:48:36;;;;;;;1.80;1.70;;;1.60;99.90;;;;;;4708116;30;20418;-78
2021/04/13 01:51:04;;;;;;;1.73;1.63;;;1.60;99.90;;;;;;4712952;30;20441;-77
2021/04/13 01:53:41;;;;;;;1.67;1.58;;;1.60;99.90;;;;;;4709629;30;20947;-79
2021/04/13 01:56:09;;;;;;;2.38;1.70;;;1.60;99.90;;;;;;4709824;30;20434;-78
2021/04/13 01:58:46;;;;;;;2.03;1.60;;;1.50;99.90;;;;;;4709840;30;20457;-79
2021/04/13 02:01:23;;;;;;;2.35;1.80;;;1.50;99.90;;;;;;4702756;30;20479;-78
2021/04/13 02:03:58;;;;;;;2.80;1.80;;;1.50;99.90;;;;;;4738519;30;20515;-78
2021/04/13 02:06:46;;;;;;;2.80;1.60;;;1.50;99.90;;;;;;4724059;30;20422;-78
2021/04/13 02:09:42;;;;;;;1.70;1.60;;;1.40;99.90;;;;;;4727751;30;20423;-78
2021/04/13 02:12:24;;;;;;;1.70;1.60;;;1.40;99.90;;;;;;4726181;30;20444;-78
2021/04/13 02:15:15;;;;;;;1.65;1.55;;;1.50;99.90;;;;;;4712593;30;20449;-77
2021/04/13 02:17:48;;;;;;;2.10;1.90;;;1.30;99.90;;;;;;4702169;30;20470;-78
2021/04/13 02:20:14;;;;;;;1.70;1.60;;;1.20;99.90;;;;;;4724385;30;20465;-78
2021/04/13 02:22:44;;;;;;;1.73;1.63;;;1.20;99.90;;;;;;4712152;30;21003;-77
2021/04/13 02:25:10;;;;;;;1.80;1.60;;;1.20;99.90;;;;;;4713435;30;20492;-78
2021/04/13 02:27:38;;;;;;;1.73;1.63;;;1.10;99.90;;;;;;4722382;30;20430;-78
2021/04/13 02:30:08;;;;;;;1.80;1.70;;;1.20;99.90;;;;;;4712191;30;20460;-78
2021/04/13 02:32:34;;;;;;;1.95;1.77;;;1.00;99.90;;;;;;4710738;30;20480;-78
2021/04/13 02:35:04;;;;;;;1.80;1.70;;;1.00;99.90;;;;;;4713380;30;21157;-78
2021/04/13 02:37:40;;;;;;;1.77;1.67;;;1.00;99.90;;;;;;4728661;30;21082;-78
2021/04/13 02:40:10;;;;;;;2.03;1.83;;;0.90;99.90;;;;;;4711569;30;20443;-77
2021/04/13 02:42:38;;;;;;;2.45;1.70;;;0.90;99.90;;;;;;4731296;30;20699;-78
2021/04/13 02:45:07;;;;;;;1.80;1.70;;;0.90;99.90;;;;;;4724368;30;20432;-78
2021/04/13 02:47:43;;;;;;;1.70;1.60;;;0.90;99.90;;;;;;4699924;30;20507;-78
2021/04/13 02:50:09;;;;;;;1.67;1.55;;;0.80;99.90;;;;;;4711891;30;20855;-78
2021/04/13 02:52:36;;;;;;;2.00;1.75;;;0.80;99.90;;;;;;4727659;30;21196;-77
2021/04/13 02:55:04;;;;;;;1.77;1.63;;;0.80;99.90;;;;;;4694642;30;20465;-77
2021/04/13 02:57:41;;;;;;;2.28;1.95;;;0.80;99.90;;;;;;4715105;30;20934;-78
2021/04/13 03:00:10;;;;;;;2.08;1.67;;;0.80;99.90;;;;;;4718432;30;20438;-77
2021/04/13 03:02:49;;;;;;;1.90;1.77;;;0.70;99.90;;;;;;4738940;30;21015;-79
2021/04/13 03:05:17;;;;;;;2.00;1.90;;;0.70;99.90;;;;;;4742495;30;20421;-79
2021/04/13 03:07:43;;;;;;;2.33;1.92;;;0.60;99.90;;;;;;4735743;30;20936;-79
2021/04/13 03:10:13;;;;;;;1.90;1.80;;;0.80;99.90;;;;;;4697667;30;20442;-77
2021/04/13 03:12:40;;;;;;;2.30;2.10;;;0.60;99.90;;;;;;4730161;30;20450;-78
2021/04/13 03:15:07;;;;;;;1.75;1.65;;;0.60;99.90;;;;;;4727424;30;20452;-78
2021/04/13 03:17:33;;;;;;;2.40;2.20;;;0.60;99.90;;;;;;4727493;30;20438;-78
2021/04/13 03:20:05;;;;;;;2.30;2.10;;;0.60;99.90;;;;;;4730932;30;20418;-78
2021/04/13 03:22:32;;;;;;;2.25;2.10;;;0.50;99.90;;;;;;4715498;30;20426;-76
2021/04/13 03:24:57;;;;;;;2.25;1.92;;;0.40;99.90;;;;;;4725629;30;20488;-79
2021/04/13 03:27:27;;;;;;;2.50;2.30;;;0.40;99.90;;;;;;4715285;30;20426;-77
2021/04/13 03:29:58;;;;;;;2.37;2.17;;;0.40;99.90;;;;;;4722500;30;20488;-77
2021/04/13 03:32:26;;;;;;;3.13;2.17;;;0.50;99.90;;;;;;4710460;30;20847;-79
2021/04/13 03:43:08;;;;;;;1.98;1.80;;;0.30;99.90;;;;;;4746983;29;20484;-78
2021/04/13 03:45:35;;;;;;;2.78;2.58;;;0.30;99.90;;;;;;4745108;30;20427;-77
2021/04/13 03:48:09;;;;;;;4.03;2.73;;;0.60;99.90;;;;;;4714947;30;20435;-78
2021/04/13 03:50:39;;;;;;;2.60;2.40;;;0.30;99.90;;;;;;4738985;30;20434;-78
2021/04/13 03:53:04;;;;;;;4.15;2.88;;;0.30;99.90;;;;;;4739438;30;20438;-78
2021/04/13 03:55:30;;;;;;;3.27;2.90;;;0.30;99.90;;;;;;4722331;30;20429;-77
2021/04/13 03:57:56;;;;;;;3.07;2.43;;;0.30;99.90;;;;;;4724457;30;20454;-78
2021/04/13 04:00:24;;;;;;;5.83;3.87;;;0.20;99.90;;;;;;4751427;30;20430;-77
2021/04/13 04:02:50;;;;;;;11.27;8.70;;;0.20;99.90;;;;;;4738047;30;20526;-78
2021/04/13 04:05:18;;;;;;;3.10;2.80;;;0.20;99.90;;;;;;4725906;30;20936;-78
2021/04/13 04:10:32;;;;;;;2.50;2.30;;;0.10;99.90;;;;;;4700854;30;20449;-77
2021/04/13 04:13:09;;;;;;;2.55;2.35;;;0.10;99.90;;;;;;4723765;30;20842;-78
2021/04/13 04:15:50;;;;;;;3.70;2.38;;;0.00;99.90;;;;;;4732566;30;20454;-78
2021/04/13 04:18:27;;;;;;;2.35;2.15;;;0.00;99.90;;;;;;4718680;30;20502;-77
2021/04/13 04:20:53;;;;;;;2.17;2.08;;;0.00;99.90;;;;;;4713000;30;20436;-77
2021/04/13 04:23:27;;;;;;;2.40;2.20;;;0.10;99.90;;;;;;4702679;30;20423;-76
2021/04/13 04:25:53;;;;;;;2.42;2.22;;;0.10;99.90;;;;;;4710967;30;20592;-77
2021/04/13 04:28:36;;;;;;;2.45;2.25;;;0.10;99.90;;;;;;4712752;30;20984;-77
2021/04/13 04:31:36;;;;;;;2.30;2.10;;;0.10;99.90;;;;;;4698859;30;20426;-76
2021/04/13 04:34:13;;;;;;;3.17;2.88;;;0.10;99.90;;;;;;4729345;30;20505;-77
2021/04/13 04:36:43;;;;;;;2.90;2.70;;;0.10;99.90;;;;;;4712881;30;20523;-78
2021/04/13 04:39:28;;;;;;;3.00;2.70;;;0.10;99.90;;;;;;4684809;30;20427;-78
2021/04/13 04:41:56;;;;;;;2.83;2.35;;;0.20;99.90;;;;;;4697473;30;20492;-77
2021/04/13 04:44:23;;;;;;;2.60;2.40;;;0.20;99.90;;;;;;4727341;30;20410;-78
2021/04/13 04:46:49;;;;;;;2.85;2.65;;;0.20;99.90;;;;;;4697696;30;20422;-75
2021/04/13 04:49:16;;;;;;;2.70;2.50;;;0.30;99.90;;;;;;4699880;30;20947;-76
2021/04/13 04:51:46;;;;;;;3.05;2.75;;;0.30;99.90;;;;;;4727689;30;20422;-75
2021/04/13 04:54:12;;;;;;;2.90;2.70;;;0.30;99.90;;;;;;4709250;30;20416;-76
2021/04/13 04:56:38;;;;;;;3.10;2.50;;;0.40;99.90;;;;;;4713502;30;20414;-76
2021/04/13 04:59:03;;;;;;;3.30;2.50;;;0.50;99.90;;;;;;4712840;30;20428;-76
2021/04/13 05:01:29;;;;;;;2.60;2.40;;;0.30;99.90;;;;;;4725542;30;20497;-77
2021/04/13 05:03:55;;;;;;;3.00;2.70;;;0.40;99.90;;;;;;4713006;30;20430;-77
2021/04/13 05:06:21;;;;;;;3.55;2.95;;;0.50;99.90;;;;;;4697722;30;20412;-77
2021/04/13 05:08:47;;;;;;;2.85;2.60;;;0.60;99.90;;;;;;4713261;30;20499;-76
2021/04/13 05:11:13;;;;;;;3.38;2.90;;;0.60;99.90;;;;;;4710782;30;20432;-77
2021/04/13 05:13:39;;;;;;;3.78;3.00;;;0.70;99.90;;;;;;4707766;30;20440;-78
2021/04/13 05:16:05;;;;;;;3.27;2.70;;;0.80;99.90;;;;;;4714131;30;20540;-77
2021/04/13 05:18:30;;;;;;;3.00;2.80;;;0.80;99.90;;;;;;4696267;30;20783;-77
2021/04/13 05:20:56;;;;;;;3.53;3.23;;;0.90;99.90;;;;;;4710881;30;20422;-77
2021/04/13 05:23:22;;;;;;;3.22;2.92;;;0.90;99.90;;;;;;4683626;30;20439;-77
2021/04/13 05:25:47;;;;;;;3.40;3.20;;;1.00;99.90;;;;;;4697992;30;20432;-77
2021/04/13 05:28:14;;;;;;;3.40;3.10;;;1.00;99.90;;;;;;4706996;30;20806;-77
2021/04/13 05:30:39;;;;;;;3.50;3.20;;;1.00;99.90;;;;;;4711103;30;20426;-77
2021/04/13 05:33:05;;;;;;;3.23;2.93;;;1.10;99.90;;;;;;4712382;30;20425;-77
2021/04/13 05:35:31;;;;;;;3.23;2.93;;;1.10;99.90;;;;;;4715656;30;20502;-77
2021/04/13 05:37:57;;;;;;;3.77;3.30;;;1.10;99.90;;;;;;4700428;30;20488;-77
2021/04/13 05:40:25;;;;;;;3.42;3.13;;;1.20;99.90;;;;;;4715174;30;20920;-78
2021/04/13 05:42:54;;;;;;;4.20;3.15;;;1.30;99.90;;;;;;4730298;30;20422;-77
2021/04/13 05:45:20;;;;;;;3.90;3.60;;;1.30;99.90;;;;;;4658739;30;1252238;-76
2021/04/13 05:47:46;;;;;;;3.80;3.50;;;1.40;99.90;;;;;;4736645;30;20410;-76
2021/04/13 05:50:20;;;;;;;3.40;3.13;;;1.50;99.90;;;;;;4716987;30;20469;-78
2021/04/13 05:52:46;;;;;;;3.72;3.10;;;1.40;99.90;;;;;;4731775;30;20418;-77
2021/04/13 05:55:12;;;;;;;3.50;3.20;;;1.60;99.90;;;;;;4717032;30;20426;-77
2021/04/13 05:57:38;;;;;;;3.63;3.33;;;1.50;99.90;;;;;;4715821;30;20522;-77
2021/04/13 06:00:04;;;;;;;3.50;3.20;;;1.60;99.90;;;;;;4698836;30;20460;-77
2021/04/13 06:02:31;;;;;;;4.07;3.67;;;1.60;99.90;;;;;;4726648;30;20427;-77
2021/04/13 06:04:56;;;;;;;5.90;4.25;;;1.60;99.90;;;;;;4741803;30;20424;-77
2021/04/13 06:07:22;;;;;;;3.73;3.40;;;1.70;99.90;;;;;;4727396;30;20937;-77
2021/04/13 06:09:48;;;;;;;3.67;3.37;;;1.70;99.90;;;;;;4727058;30;20846;-77
2021/04/13 06:12:14;;;;;;;3.95;3.47;;;1.80;99.90;;;;;;4728000;30;20560;-77
2021/04/13 06:14:42;;;;;;;4.45;4.03;;;1.80;99.90;;;;;;4742441;30;20411;-77
2021/04/13 06:17:09;;;;;;;4.57;4.13;;;1.80;99.90;;;;;;4725301;30;20443;-77
2021/04/13 06:19:35;;;;;;;5.30;4.80;;;2.00;99.90;;;;;;4713083;30;20443;-76
2021/04/13 06:22:01;;;;;;;5.40;4.90;;;2.10;99.90;;;;;;4741536;30;20448;-77
2021/04/13 06:24:27;;;;;;;4.23;3.83;;;2.20;99.90;;;;;;4720447;30;20463;-76
2021/04/13 06:26:52;;;;;;;3.80;3.50;;;2.40;99.90;;;;;;4712959;30;20833;-77
2021/04/13 06:29:18;;;;;;;3.35;3.05;;;2.20;99.90;;;;;;4708061;30;20931;-76
2021/04/13 06:31:44;;;;;;;4.32;3.80;;;2.40;99.90;;;;;;4715639;30;20450;-78
2021/04/13 06:34:09;;;;;;;4.23;3.83;;;2.60;99.90;;;;;;4715041;30;20452;-77
2021/04/13 06:36:35;;;;;;;4.20;3.65;;;2.50;99.90;;;;;;4716389;30;20492;-76
2021/04/13 06:39:01;;;;;;;4.53;4.05;;;2.50;99.90;;;;;;4715475;30;20441;-76
2021/04/13 06:41:48;;;;;;;4.20;3.90;;;2.60;99.90;;;;;;4715678;30;20426;-76
2021/04/13 06:44:32;;;;;;;3.90;3.50;;;2.60;99.90;;;;;;4730042;30;20459;-76
2021/04/13 06:47:22;;;;;;;4.47;4.07;;;2.70;99.90;;;;;;4730745;30;20442;-77
2021/04/13 06:50:43;;;;;;;4.40;4.00;;;2.70;99.90;;;;;;4730254;30;20895;-76
2021/04/13 06:53:26;;;;;;;4.50;4.10;;;2.90;99.90;;;;;;4700369;30;20549;-77
2021/04/13 06:56:33;;;;;;;3.97;3.67;;;3.10;99.90;;;;;;4716291;30;20456;-77
2021/04/13 06:59:07;;;;;;;4.00;3.70;;;3.20;99.90;;;;;;4715402;30;20438;-77
2021/04/13 07:01:34;;;;;;;4.57;3.80;;;3.10;99.90;;;;;;4717510;30;20422;-78
2021/04/13 07:04:14;;;;;;;5.05;4.55;;;3.30;99.90;;;;;;4718448;30;20426;-78
2021/04/13 07:06:44;;;;;;;4.57;4.18;;;3.40;99.90;;;;;;4719076;30;20426;-79
2021/04/13 07:09:38;;;;;;;4.80;4.28;;;3.50;99.90;;;;;;4718339;30;20481;-78
2021/04/13 07:12:25;;;;;;;6.05;4.47;;;3.70;99.90;;;;;;4711134;30;20435;-78
2021/04/13 07:15:14;;;;;;;5.15;4.65;;;3.80;99.90;;;;;;4738164;30;20418;-78
2021/04/13 07:17:50;;;;;;;4.30;3.75;;;4.00;99.90;;;;;;4709995;30;20432;-78
2021/04/13 07:20:34;;;;;;;4.35;3.90;;;4.10;99.90;;;;;;4728684;30;20416;-77
2021/04/13 07:23:05;;;;;;;4.23;3.83;;;4.20;99.90;;;;;;4729321;30;20427;-78
2021/04/13 07:25:40;;;;;;;3.67;3.38;;;4.40;99.90;;;;;;4714699;30;20791;-77
2021/04/13 07:28:09;;;;;;;4.63;4.05;;;4.30;99.90;;;;;;4730426;30;20420;-78
2021/04/13 07:30:53;;;;;;;3.85;3.55;;;4.30;99.90;;;;;;4708107;30;20781;-78
2021/04/13 07:33:24;;;;;;;4.13;3.55;;;4.50;99.90;;;;;;4704000;30;20426;-77
2021/04/13 07:35:50;;;;;;;3.63;3.33;;;4.50;99.90;;;;;;4717313;30;20430;-78
2021/04/13 07:38:21;;;;;;;4.00;3.60;;;4.60;99.90;;;;;;4716925;30;20434;-79
2021/04/13 07:40:49;;;;;;;4.00;3.67;;;4.60;99.90;;;;;;4716995;30;20426;-77
2021/04/13 07:43:23;;;;;;;4.05;3.55;;;4.90;99.90;;;;;;4731926;30;20429;-78
2021/04/13 07:46:15;;;;;;;3.10;2.90;;;4.90;99.90;;;;;;4730052;30;20515;-77
2021/04/13 07:49:06;;;;;;;3.95;3.35;;;5.10;99.90;;;;;;4744345;30;22233;-79
2021/04/13 07:51:45;;;;;;;3.33;3.00;;;5.10;99.90;;;;;;4729707;30;20421;-78
2021/04/13 07:54:16;;;;;;;3.50;3.20;;;5.20;99.90;;;;;;4732344;30;20493;-78
2021/04/13 07:56:47;;;;;;;3.53;3.23;;;5.40;99.90;;;;;;4716408;30;20423;-78
2021/04/13 08:00:05;;;;;;;3.40;3.10;;;5.40;99.90;;;;;;4732553;30;20467;-78
2021/04/13 08:02:38;;;;;;;3.33;2.95;;;5.50;99.90;;;;;;4712268;30;20503;-78
2021/04/13 08:05:04;;;;;;;3.33;3.03;;;5.70;99.90;;;;;;4684007;30;20424;-78
2021/04/13 08:07:35;;;;;;;3.13;2.88;;;5.70;99.90;;;;;;4709199;30;20407;-78
2021/04/13 08:10:13;;;;;;;2.80;2.60;;;5.90;99.90;;;;;;4702078;30;20422;-78
2021/04/13 08:12:49;;;;;;;3.10;2.80;;;6.10;99.90;;;;;;4712256;30;20753;-78
2021/04/13 08:15:16;;;;;;;3.78;2.80;;;6.40;99.90;;;;;;4716693;30;20526;-78
2021/04/13 08:17:54;;;;;;;2.88;2.67;;;6.60;99.90;;;;;;4730721;30;20899;-78
2021/04/13 08:20:31;;;;;;;2.65;2.45;;;6.50;99.90;;;;;;4731366;30;20425;-78
2021/04/13 08:23:06;;;;;;;2.58;2.38;;;6.40;99.90;;;;;;4718705;30;20478;-77
2021/04/13 08:25:38;;;;;;;2.95;2.65;;;6.50;99.90;;;;;;4702948;30;20513;-79
2021/04/13 08:28:25;;;;;;;2.93;2.70;;;6.60;99.90;;;;;;4681935;30;21229;-79
2021/04/13 08:34:22;;;;;;;2.70;2.50;;;7.00;99.90;;;;;;4694881;30;20417;-78
2021/04/13 08:36:57;;;;;;;2.88;2.65;;;7.10;99.90;;;;;;4691662;30;20430;-78
2021/04/13 08:39:30;;;;;;;3.28;2.42;;;7.00;99.90;;;;;;4680890;30;20552;-79
2021/04/13 08:42:12;;;;;;;2.30;2.10;;;7.00;99.90;;;;;;4696879;30;20440;-79
2021/04/13 08:44:46;;;;;;;2.47;2.27;;;7.00;99.90;;;;;;4679884;30;20479;-79
2021/04/13 08:47:17;;;;;;;2.65;2.30;;;7.10;99.90;;;;;;4700291;30;20459;-79
2021/04/13 08:49:55;;;;;;;2.30;2.10;;;7.30;99.90;;;;;;4696626;30;20457;-78
2021/04/13 08:52:33;;;;;;;2.10;1.90;;;7.30;99.90;;;;;;4677651;30;20423;-79
2021/04/13 08:55:11;;;;;;;1.80;1.70;;;7.30;99.90;;;;;;4693690;30;20784;-79
2021/04/13 08:57:41;;;;;;;1.50;1.40;;;7.30;99.90;;;;;;4689467;30;20472;-79
2021/04/13 09:00:32;;;;;;;2.28;1.77;;;7.40;99.90;;;;;;4679246;30;20430;-79
2021/04/13 09:03:00;;;;;;;1.65;1.48;;;7.40;99.90;;;;;;4690584;30;20911;-79
2021/04/13 09:05:27;;;;;;;1.70;1.60;;;7.50;99.90;;;;;;4679657;30;21051;-78
2021/04/13 09:08:03;;;;;;;1.50;1.40;;;7.70;99.90;;;;;;4689473;30;20951;-79
2021/04/13 09:10:31;;;;;;;1.13;1.13;;;7.70;99.90;;;;;;4672369;30;20422;-79
2021/04/13 09:13:08;;;;;;;1.50;1.40;;;7.80;99.90;;;;;;4701430;30;20462;-78
2021/04/13 09:15:34;;;;;;;1.27;1.20;;;8.00;99.90;;;;;;4695510;30;20432;-79
2021/04/13 09:18:09;;;;;;;1.45;1.35;;;8.10;99.90;;;;;;4665203;30;20818;-79
2021/04/13 09:20:41;;;;;;;1.45;1.35;;;7.90;99.90;;;;;;4689632;30;20422;-79
2021/04/13 09:23:07;;;;;;;1.40;1.30;;;8.00;99.90;;;;;;4698476;30;20828;-79
2021/04/13 09:25:39;;;;;;;1.65;1.48;;;8.00;99.90;;;;;;4694108;30;20447;-79
2021/04/13 09:28:19;;;;;;;1.40;1.30;;;7.90;99.90;;;;;;4674009;30;20438;-79
2021/04/13 09:30:48;;;;;;;1.40;1.30;;;7.70;99.90;;;;;;4677938;30;20444;-79
2021/04/13 09:33:36;;;;;;;1.60;1.38;;;7.80;99.90;;;;;;4687516;30;20537;-79
2021/04/13 09:36:23;;;;;;;1.50;1.25;;;7.50;99.90;;;;;;4668910;30;20448;-80
2021/04/13 09:39:26;;;;;;;1.30;1.20;;;7.70;99.90;;;;;;4686404;30;20436;-79
2021/04/13 09:42:16;;;;;;;1.70;1.33;;;7.90;99.90;;;;;;4678837;30;20425;-79
2021/04/13 09:44:54;;;;;;;1.35;1.25;;;7.80;99.90;;;;;;4678028;30;20434;-79
2021/04/13 09:47:38;;;;;;;1.83;1.30;;;7.80;99.90;;;;;;4690967;30;20511;-78
2021/04/13 09:50:12;;;;;;;1.37;1.27;;;8.10;99.90;;;;;;4680603;30;20963;-78
2021/04/13 09:53:02;;;;;;;3.13;1.35;;;8.00;99.90;;;;;;4693040;30;21049;-77
2021/04/13 09:56:05;;;;;;;1.38;1.30;;;8.10;99.90;;;;;;4690950;30;20433;-78
2021/04/13 09:58:46;;;;;;;1.67;1.58;;;8.10;99.90;;;;;;4697154;30;20444;-80
2021/04/13 10:01:39;;;;;;;1.35;1.25;;;8.40;99.90;;;;;;4694744;30;20440;-80
2021/04/13 10:04:23;;;;;;;1.48;1.38;;;8.50;99.90;;;;;;4660344;30;20438;-79
2021/04/13 10:07:16;;;;;;;1.60;1.50;;;8.80;99.90;;;;;;4694310;30;20986;-80
2021/04/13 10:09:43;;;;;;;1.50;1.40;;;8.90;99.90;;;;;;4672597;30;20427;-79
2021/04/13 10:12:26;;;;;;;2.20;1.90;;;9.10;99.90;;;;;;4679328;30;20430;-80
2021/04/13 10:15:14;;;;;;;1.38;1.27;;;9.40;99.90;;;;;;4697844;30;20427;-80
2021/04/13 10:17:54;;;;;;;1.30;1.20;;;9.60;99.90;;;;;;4701928;30;20452;-79
2021/04/13 10:20:30;;;;;;;1.80;1.70;;;9.10;99.90;;;;;;4693609;30;20795;-79
2021/04/13 10:23:20;;;;;;;3.10;1.90;;;9.30;99.90;;;;;;4681672;30;20509;-79
2021/04/13 10:26:21;;;;;;;2.28;1.90;;;9.50;99.90;;;;;;4691242;30;20438;-81
2021/04/13 10:29:06;;;;;;;1.58;1.30;;;9.80;99.90;;;;;;4693701;30;20429;-79
2021/04/13 10:31:43;;;;;;;3.20;1.73;;;9.80;99.90;;;;;;4699073;30;20485;-79
2021/04/13 10:34:42;;;;;;;2.83;1.42;;;9.70;99.90;;;;;;4700112;30;20445;-80
2021/04/13 10:37:46;;;;;;;2.00;1.80;;;9.80;99.90;;;;;;4697899;30;20430;-79
2021/04/13 10:40:32;;;;;;;2.03;1.40;;;9.50;99.90;;;;;;4598180;30;20437;-79
2021/04/13 10:43:38;;;;;;;2.97;1.40;;;9.50;99.90;;;;;;4706159;30;20935;-80
2021/04/13 10:46:23;;;;;;;0.90;0.90;;;9.30;99.90;;;;;;4696032;30;20501;-79
2021/04/13 10:49:36;;;;;;;1.30;1.20;;;9.10;99.90;;;;;;4689916;30;20433;-80
2021/04/13 10:52:27;;;;;;;1.10;1.10;;;8.90;99.90;;;;;;4690098;30;20499;-81
2021/04/13 10:55:01;;;;;;;1.55;1.45;;;9.00;99.90;;;;;;4696845;30;20437;-79
2021/04/13 10:57:56;;;;;;;1.35;1.10;;;9.50;99.90;;;;;;4696797;30;20435;-79
2021/04/13 11:01:06;;;;;;;1.10;1.10;;;9.80;99.90;;;;;;4686145;30;20460;-79
2021/04/13 11:03:53;;;;;;;1.30;1.20;;;10.00;99.90;;;;;;4698452;30;20430;-78
2021/04/13 11:06:56;;;;;;;1.23;1.15;;;9.60;99.50;;;;;;4697502;30;21001;-79
2021/04/13 11:09:56;;;;;;;1.50;1.40;;;9.60;99.90;;;;;;4692965;30;20516;-82
2021/04/13 11:12:29;;;;;;;1.48;1.38;;;9.90;99.90;;;;;;4686862;30;20421;-80
2021/04/13 11:15:13;;;;;;;1.58;1.48;;;10.10;99.90;;;;;;4703069;30;20422;-80
2021/04/13 11:17:47;;;;;;;2.38;1.70;;;10.60;99.90;;;;;;4703679;30;20449;-82
2021/04/13 11:20:26;;;;;;;1.65;1.55;;;10.80;99.90;;;;;;4705429;30;20430;-80
2021/04/13 11:23:22;;;;;;;1.50;1.40;;;10.90;99.90;;;;;;4690967;30;20582;-86
2021/04/13 11:26:21;;;;;;;1.30;1.20;;;11.10;99.90;;;;;;4692654;30;20975;-84
2021/04/13 11:29:42;;;;;;;1.00;1.00;;;11.20;97.10;;;;;;4701460;30;20800;-80
2021/04/13 11:37:29;;;;;;;1.70;1.30;;;10.00;99.20;;;;;;4705742;30;20448;-80
2021/04/13 11:41:35;;;;;;;1.40;1.30;;;9.80;99.10;;;;;;4656842;30;20521;-81
2021/04/13 11:45:32;;;;;;;2.10;1.10;;;9.60;98.30;;;;;;4663448;30;20443;-80
2021/04/13 11:49:19;;;;;;;1.15;1.13;;;9.50;99.90;;;;;;4615720;30;20451;-81
2021/04/13 12:02:51;;;;;;;1.07;1.03;;;9.40;99.90;;;;;;4643459;31;20436;-80
2021/04/13 12:07:15;;;;;;;1.25;1.17;;;9.40;99.90;;;;;;4652534;30;20484;-79
2021/04/13 12:11:20;;;;;;;1.40;1.30;;;9.70;99.90;;;;;;4668761;30;20500;-80
2021/04/13 12:19:11;;;;;;;1.37;1.27;;;9.20;99.90;;;;;;4694804;30;20465;-79
2021/04/13 12:23:20;;;;;;;1.90;1.20;;;9.50;99.90;;;;;;4710349;30;20439;-79
2021/04/13 12:31:23;;;;;;;1.27;1.20;;;9.40;99.90;;;;;;4747476;24;20443;-78
2021/04/13 12:33:48;;;;;;;2.08;1.20;;;9.40;99.90;;;;;;4721567;30;20429;-78
2021/04/13 12:36:52;;;;;;;1.40;1.30;;;9.30;99.90;;;;;;4717378;30;20417;-79
2021/04/13 12:39:43;;;;;;;1.40;1.30;;;9.60;99.90;;;;;;4731381;30;20480;-79
2021/04/13 12:42:51;;;;;;;1.00;1.00;;;10.30;99.90;;;;;;4721109;30;20423;-79
2021/04/13 12:45:20;;;;;;;1.05;1.05;;;10.50;99.90;;;;;;4716697;30;20413;-79
2021/04/13 12:47:47;;;;;;;1.73;1.42;;;11.20;99.90;;;;;;4737319;30;20825;-79
2021/04/13 12:50:22;;;;;;;1.40;1.30;;;11.10;99.90;;;;;;4722272;30;20431;-80
2021/04/13 12:52:48;;;;;;;0.97;0.93;;;11.00;99.20;;;;;;4722076;30;20454;-79
2021/04/13 12:55:15;;;;;;;1.00;1.00;;;10.40;98.80;;;;;;4710422;30;20457;-79
2021/04/13 12:58:14;;;;;;;0.80;0.80;;;10.00;98.60;;;;;;4701423;30;20929;-79
2021/04/13 13:00:46;;;;;;;1.40;1.00;;;10.00;98.90;;;;;;4707175;30;20435;-79
2021/04/13 13:03:31;;;;;;;2.43;1.00;;;10.10;99.90;;;;;;4733615;30;20488;-78
2021/04/13 13:05:56;;;;;;;1.05;0.95;;;10.10;99.90;;;;;;4749773;30;20424;-79
2021/04/13 13:08:28;;;;;;;0.97;0.97;;;10.30;99.60;;;;;;4736706;30;20420;-78
2021/04/13 13:10:57;;;;;;;0.95;0.93;;;10.30;98.30;;;;;;4750648;30;20428;-78
2021/04/13 13:13:25;;;;;;;1.40;1.07;;;10.30;97.90;;;;;;4721453;30;20421;-78
2021/04/13 13:15:52;;;;;;;1.10;1.10;;;10.40;98.20;;;;;;4733107;30;20429;-79
2021/04/13 13:18:18;;;;;;;1.27;1.05;;;10.40;97.10;;;;;;4735734;30;20516;-79
2021/04/13 13:20:44;;;;;;;2.78;1.10;;;10.40;97.40;;;;;;4736453;30;20452;-79
2021/04/13 13:23:16;;;;;;;1.30;1.20;;;10.50;97.20;;;;;;4737290;30;21132;-79
2021/04/13 13:25:43;;;;;;;0.98;0.98;;;10.50;99.80;;;;;;4735707;30;20420;-78
2021/04/13 13:28:18;;;;;;;1.00;1.00;;;10.40;96.70;;;;;;4717288;30;20925;-78
2021/04/13 13:30:44;;;;;;;3.58;1.35;;;10.10;95.60;;;;;;4688024;30;20433;-80
2021/04/13 13:33:09;;;;;;;1.10;1.00;;;10.00;97.40;;;;;;4696107;30;20429;-80
2021/04/13 13:35:35;;;;;;;1.13;1.00;;;9.80;98.00;;;;;;4688187;30;20434;-78
2021/04/13 13:38:01;;;;;;;1.10;1.10;;;9.90;97.60;;;;;;4687661;30;20438;-83
2021/04/13 13:40:38;;;;;;;1.73;1.20;;;10.10;98.20;;;;;;4675555;30;20422;-80
2021/04/13 13:43:08;;;;;;;1.30;1.03;;;10.20;98.50;;;;;;4685287;30;20426;-79
2021/04/13 13:45:38;;;;;;;1.10;1.00;;;10.10;97.90;;;;;;4701984;30;20456;-83
2021/04/13 13:48:22;;;;;;;1.30;1.20;;;10.10;97.60;;;;;;4718644;30;20426;-79
2021/04/13 13:50:50;;;;;;;1.20;0.90;;;10.40;99.30;;;;;;4719088;30;20995;-79
2021/04/13 13:53:22;;;;;;;1.07;1.03;;;10.20;96.00;;;;;;4697213;30;20425;-81
2021/04/13 13:56:01;;;;;;;1.02;1.00;;;10.00;95.10;;;;;;4721717;30;20429;-79
2021/04/13 13:58:29;;;;;;;1.10;1.00;;;10.10;95.30;;;;;;4705774;30;20962;-78
2021/04/13 14:01:02;;;;;;;1.30;1.02;;;10.20;96.60;;;;;;4707643;30;20478;-81
2021/04/13 14:03:33;;;;;;;1.13;1.02;;;10.20;95.90;;;;;;4735577;30;20488;-79
2021/04/13 14:06:10;;;;;;;1.05;1.00;;;10.10;97.00;;;;;;4734274;30;20970;-83
2021/04/13 14:08:37;;;;;;;0.90;0.90;;;9.90;95.20;;;;;;4720829;30;20945;-80
2021/04/13 14:11:24;;;;;;;1.10;1.00;;;10.30;97.10;;;;;;4708422;30;20551;-80
2021/04/13 14:13:57;;;;;;;1.13;1.00;;;10.70;94.30;;;;;;4737051;30;20424;-80
2021/04/13 14:16:26;;;;;;;1.00;1.00;;;10.50;91.00;;;;;;4706545;30;20424;-80
2021/04/13 14:18:56;;;;;;;1.00;1.00;;;10.30;90.80;;;;;;4713300;30;20468;-78
2021/04/13 14:21:22;;;;;;;0.80;0.80;;;10.20;90.20;;;;;;4715640;30;20430;-78
2021/04/13 14:23:51;;;;;;;0.93;0.93;;;10.30;90.80;;;;;;4717972;30;20431;-78
2021/04/13 14:26:31;;;;;;;3.83;1.00;;;10.30;90.30;;;;;;4731710;30;20426;-78
2021/04/13 14:29:15;;;;;;;1.67;0.73;;;10.30;90.60;;;;;;4734207;30;20428;-78